KBQK/BQK METAR and TAF weather

Enter ICAO airport designator
Station Type Date Time Source
KBQK METAR 2019/08/24 09:55 UTC NOAA

KBQK 240955Z AUTO 00000KT 1SM BR VV007 24/24 A2997 RMK AO2 T02380237


Station Type Date Time Source
KBQK Decoded METAR 2019/08/24 09:55 UTC NOAA

Station name not available
Aug 24, 2019 - 05:55 AM EDT / 2019.08.24 0955 UTC
Wind: Calm:0
Visibility: 1 mile(s):0
Sky conditions: obscured
Weather: mist
Temperature: 74.8 F (23.8 C)
Dew Point: 74.7 F (23.7 C)
Relative Humidity: 99%
Pressure (altimeter): 29.97 in. Hg (1014 hPa)
ob: KBQK 240955Z AUTO 00000KT 1SM BR VV007 24/24 A2997 RMK AO2 T02380237
cycle: 10

Station Type Date Time Source
KBQK TAF UTC NOAA

Error!

Example: see airport list